Whidbey Island Naval Air Station, Ault Field, Airport Oak Harbor US
ICAO: KNUW
IATA: NUW
Category: Medium
Scheduled Services: No

Elevation: 47 ft
TransAlt. 18000 ft.

Airport Communications:
APP/DEP:118.2
ATIS:134.15
CLNC DEL:124.15
GND:121.75
BASE OPS:35.01
PMSV METRO:34.34
TWR:127.9

KNUW Zoom In..

If Map Doesn't Load, Click Here

Runways:

(A) RW 07 length 8000 ft width 200 ft
---- / hdg 69

(B) RW 14 length 8001 ft width 200 ft
ILS 110.10 / hdg 137

(C) RW 25 length 8000 ft width 200 ft
---- / hdg 249

(D) RW 32 length 8001 ft width 200 ft
---- / hdg 317

Location; KNUW
Day. 24 / Time. 04.56 Zulu
* Altimeter: 30.23
* Temperature: 11° c. 51.8°f.
* Wind from: 000° Speed 00 kn.
Dewpoint: 05° c.
Visibility: 10 Statute Miles.
Clouds: Broken 6500 ft.

KNUW 240456Z 00000KT 10SM BKN065 11/05 A3023 RMK AO2 SLP236 T01110050 $


Wind - Calm.

 
 
jpsmedia.com for Web Design worldairports.se 2018   terms of use